Time;durP1;ratioP1;P1;durP2;ratioP2;P2;SDS_P1;SDS_P2;PMS_P1;PMS_P2;Temp;Humidity;BMP_temperature;BMP_pressure;BME280_temperature;BME280_humidity;BME280_pressure;Samples;Min_cycle;Max_cycle;Signal;HPM_P1;HPM_P2
2023/04/19 00:01:56;;;;;;;17.87;12.20;;;;;;;;;;5094149;28;20040;-72
2023/04/19 00:04:21;;;;;;;19.05;12.23;;;;;;;;;;5094469;27;20286;-73
2023/04/19 00:06:46;;;;;;;20.42;13.15;;;;;;;;;;5079041;28;20537;-73
2023/04/19 00:09:12;;;;;;;23.23;14.00;;;;;;;;;;5096430;27;20023;-73
2023/04/19 00:11:37;;;;;;;23.75;13.90;;;;;;;;;;5095536;28;20284;-74
2023/04/19 00:14:02;;;;;;;26.33;13.37;;;;;;;;;;5094863;28;20027;-74
2023/04/19 00:16:28;;;;;;;24.02;14.25;;;;;;;;;;5083103;28;20312;-73
2023/04/19 00:18:53;;;;;;;29.08;14.57;;;;;;;;;;5095291;28;20085;-73
2023/04/19 00:21:18;;;;;;;23.50;13.87;;;;;;;;;;5078585;28;20103;-73
2023/04/19 00:23:44;;;;;;;25.73;14.70;;;;;;;;;;5093498;27;20290;-72
2023/04/19 00:26:10;;;;;;;26.35;15.38;;;;;;;;;;5093185;28;20288;-73
2023/04/19 00:28:35;;;;;;;21.65;13.50;;;;;;;;;;5091088;28;20028;-73
2023/04/19 00:31:00;;;;;;;29.63;15.65;;;;;;;;;;5086525;28;20031;-72
2023/04/19 00:33:26;;;;;;;25.50;15.90;;;;;;;;;;5078801;28;20032;-72
2023/04/19 00:35:51;;;;;;;25.37;15.77;;;;;;;;;;5094637;28;20299;-72
2023/04/19 00:38:16;;;;;;;25.80;15.43;;;;;;;;;;5095093;27;20493;-73
2023/04/19 00:40:41;;;;;;;45.73;16.90;;;;;;;;;;5094913;28;20383;-73
2023/04/19 00:43:07;;;;;;;30.92;15.93;;;;;;;10.01;nan;100237.94;5093645;28;20115;-73
2023/04/19 00:45:33;;;;;;;28.20;15.77;;;;;;;;;;5096194;27;20027;-75
2023/04/19 00:48:00;;;;;;;29.08;16.15;;;;;;;;;;5094148;27;20137;-73
2023/04/19 00:50:25;;;;;;;27.77;15.73;;;;;;;;;;5077263;28;20024;-72
2023/04/19 00:52:52;;;;;;;25.73;15.65;;;;;;;;;;5093973;28;20035;-71
2023/04/19 00:55:18;;;;;;;24.65;15.30;;;;;;;;;;5093280;28;20024;-71
2023/04/19 00:57:43;;;;;;;26.27;14.70;;;;;;;;;;5074949;28;20041;-72
2023/04/19 01:00:09;;;;;;;25.85;16.15;;;;;;;;;;5070918;28;20038;-71
2023/04/19 01:02:35;;;;;;;28.63;16.92;;;;;;;;;;5076944;28;20100;-72
2023/04/19 01:05:00;;;;;;;28.58;16.25;;;;;;;;;;5073167;28;20025;-71
2023/04/19 01:07:25;;;;;;;29.65;17.15;;;;;;;;;;5075538;28;20474;-71
2023/04/19 01:09:51;;;;;;;29.85;16.50;;;;;;;;;;5076038;28;20534;-72
2023/04/19 01:12:16;;;;;;;27.80;17.27;;;;;;;;;;5073478;28;20024;-71
2023/04/19 01:14:41;;;;;;;33.00;18.25;;;;;;;;;;5071752;28;20449;-71
2023/04/19 01:17:07;;;;;;;31.37;17.47;;;;;;;9.84;nan;100236.16;5074131;28;20431;-72
2023/04/19 01:19:33;;;;;;;30.00;17.58;;;;;;;;;;5071277;28;20059;-72
2023/04/19 01:21:59;;;;;;;31.65;17.95;;;;;;;;;;5073420;28;20029;-71
2023/04/19 01:24:24;;;;;;;32.67;17.90;;;;;;;;;;5072993;28;20031;-71
2023/04/19 01:26:49;;;;;;;32.20;19.07;;;;;;;;;;5074517;28;20032;-71
2023/04/19 01:29:14;;;;;;;34.50;18.80;;;;;;;;;;5076577;28;20280;-71
2023/04/19 01:31:40;;;;;;;32.93;18.30;;;;;;;;;;5074346;28;20066;-71
2023/04/19 01:34:05;;;;;;;31.80;18.35;;;;;;;;;;5074315;28;20360;-71
2023/04/19 01:36:31;;;;;;;29.70;18.23;;;;;;;;;;5074749;28;20078;-71
2023/04/19 01:38:56;;;;;;;34.00;18.50;;;;;;;;;;5075282;28;20028;-72
2023/04/19 01:41:25;;;;;;;28.02;17.42;;;;;;;;;;5076456;28;20068;-72
2023/04/19 01:43:50;;;;;;;31.75;18.85;;;;;;;;;;5074312;28;20032;-71
2023/04/19 01:46:16;;;;;;;33.83;18.83;;;;;;;;;;5076442;28;20384;-72
2023/04/19 01:48:41;;;;;;;34.23;20.23;;;;;;;;;;5076007;28;20282;-72
2023/04/19 01:51:06;;;;;;;33.60;18.93;;;;;;;;;;5073961;28;20115;-72
2023/04/19 01:53:31;;;;;;;33.70;19.23;;;;;;;;;;5073521;28;20334;-73
2023/04/19 01:55:57;;;;;;;31.20;19.07;;;;;;;;;;5075466;28;20352;-72
2023/04/19 01:58:22;;;;;;;34.45;18.83;;;;;;;;;;5096584;28;20288;-72
2023/04/19 02:00:47;;;;;;;33.63;18.77;;;;;;;;;;5100613;28;20032;-72
2023/04/19 02:03:12;;;;;;;33.03;18.97;;;;;;;;;;5094722;27;20032;-71
2023/04/19 02:05:38;;;;;;;34.47;18.93;;;;;;;;;;5096969;28;20106;-71
2023/04/19 02:08:03;;;;;;;32.40;18.95;;;;;;;;;;5095261;28;20279;-72
2023/04/19 02:10:28;;;;;;;35.23;20.03;;;;;;;;;;5097242;28;20038;-72
2023/04/19 02:12:54;;;;;;;33.58;19.95;;;;;;;;;;5079298;28;21027;-71
2023/04/19 02:15:19;;;;;;;33.30;19.55;;;;;;;;;;5096678;28;20050;-72
2023/04/19 02:17:45;;;;;;;37.35;20.05;;;;;;;;;;5096016;28;20485;-72
2023/04/19 02:20:10;;;;;;;34.70;19.40;;;;;;;;;;5084791;28;20057;-72
2023/04/19 02:22:36;;;;;;;35.53;20.13;;;;;;;;;;5096473;28;20028;-72
2023/04/19 02:25:01;;;;;;;36.30;19.63;;;;;;;;;;5098037;28;20401;-72
2023/04/19 02:27:26;;;;;;;37.75;20.10;;;;;;;;;;5081470;28;20455;-73
2023/04/19 02:29:51;;;;;;;37.15;20.80;;;;;;;;;;5099487;28;20544;-72
2023/04/19 02:32:17;;;;;;;39.88;20.75;;;;;;;;;;5095463;28;20032;-71
2023/04/19 02:34:42;;;;;;;35.87;20.90;;;;;;;;;;5096820;28;20638;-72
2023/04/19 02:37:07;;;;;;;41.90;20.90;;;;;;;;;;5095560;28;20282;-72
2023/04/19 02:39:33;;;;;;;36.63;20.48;;;;;;;;;;5083156;27;20114;-72
2023/04/19 02:41:58;;;;;;;37.75;21.48;;;;;;;;;;5094103;27;20040;-73
2023/04/19 02:44:23;;;;;;;41.08;22.25;;;;;;;;;;5096868;28;20424;-73
2023/04/19 02:46:52;;;;;;;38.07;21.10;;;;;;;;;;5095245;28;20028;-73
2023/04/19 02:49:17;;;;;;;41.53;20.60;;;;;;;;;;5098346;28;20275;-73
2023/04/19 02:51:43;;;;;;;40.67;21.85;;;;;;;;;;5079921;27;20035;-72
2023/04/19 02:54:08;;;;;;;47.60;23.02;;;;;;;;;;5098062;28;20031;-73
2023/04/19 02:56:33;;;;;;;35.92;20.13;;;;;;;;;;5098954;28;20052;-73
2023/04/19 02:59:00;;;;;;;35.10;20.10;;;;;;;;;;5095560;27;21126;-73
2023/04/19 03:01:25;;;;;;;43.70;22.10;;;;;;;;;;5100680;27;20359;-73
2023/04/19 03:03:50;;;;;;;35.95;20.10;;;;;;;;;;5085301;28;20123;-73
2023/04/19 03:06:16;;;;;;;38.45;20.13;;;;;;;;;;5098059;28;20424;-73
2023/04/19 03:08:41;;;;;;;35.20;19.88;;;;;;;;;;5095127;28;20350;-73
2023/04/19 03:11:06;;;;;;;36.57;20.50;;;;;;;;;;5095249;28;20016;-72
2023/04/19 03:13:31;;;;;;;38.80;20.90;;;;;;;;;;5097584;28;20023;-72
2023/04/19 03:15:57;;;;;;;39.90;21.70;;;;;;;;;;5080838;28;20031;-72
2023/04/19 03:18:22;;;;;;;35.10;20.07;;;;;;;;;;5082843;28;20271;-72
2023/04/19 03:20:47;;;;;;;40.33;19.90;;;;;;;;;;5095694;28;20276;-73
2023/04/19 03:23:13;;;;;;;38.17;19.63;;;;;;;;;;5096815;28;20024;-72
2023/04/19 03:25:38;;;;;;;37.90;19.00;;;;;;;;;;5097867;28;20296;-73
2023/04/19 03:28:03;;;;;;;35.07;19.87;;;;;;;;;;5081858;28;20038;-73
2023/04/19 03:30:28;;;;;;;39.10;19.17;;;;;;;;;;5095751;28;20272;-72
2023/04/19 03:32:54;;;;;;;36.40;19.37;;;;;;;;;;5081198;27;20031;-73
2023/04/19 03:35:20;;;;;;;38.20;19.67;;;;;;;;;;5095521;28;20028;-72
2023/04/19 03:37:45;;;;;;;34.13;19.50;;;;;;;;;;5080888;28;20039;-73
2023/04/19 03:40:10;;;;;;;36.20;19.73;;;;;;;;;;5094675;28;20024;-72
2023/04/19 03:42:35;;;;;;;38.72;19.73;;;;;;;;;;5079578;28;20705;-72
2023/04/19 03:45:01;;;;;;;39.37;20.67;;;;;;;;;;5096533;28;20473;-72
2023/04/19 03:47:26;;;;;;;38.85;20.15;;;;;;;9.63;nan;100148.09;5101353;28;20339;-72
2023/04/19 03:49:52;;;;;;;39.20;19.98;;;;;;;9.64;nan;100141.78;5096146;27;20147;-73
2023/04/19 03:52:17;;;;;;;37.10;20.00;;;;;;;9.61;nan;100142.25;5079563;28;20024;-72
2023/04/19 03:54:42;;;;;;;41.17;20.25;;;;;;;9.68;nan;100151.63;5095233;28;20035;-71
2023/04/19 03:57:08;;;;;;;116.15;44.17;;;;;;;9.75;nan;100144.44;5099098;28;20068;-72
2023/04/19 03:59:34;;;;;;;54.70;27.45;;;;;;;9.87;nan;100152.38;5100303;28;20553;-72
2023/04/19 04:01:59;;;;;;;44.55;21.30;;;;;;;9.79;nan;100134.25;5099379;27;20402;-73
2023/04/19 04:04:24;;;;;;;44.38;22.50;;;;;;;9.75;nan;100135.75;5096057;28;20028;-73
2023/04/19 04:06:50;;;;;;;52.80;24.17;;;;;;;9.72;nan;100136.19;5077315;28;20073;-73
2023/04/19 04:09:16;;;;;;;39.42;20.08;;;;;;;9.67;nan;100139.50;5093925;27;20039;-72
2023/04/19 04:11:41;;;;;;;38.97;20.88;;;;;;;9.72;nan;100147.53;5092896;27;20099;-72
2023/04/19 04:14:06;;;;;;;44.67;21.13;;;;;;;9.68;nan;100140.31;5082764;28;20548;-73
2023/04/19 04:16:32;;;;;;;52.90;22.70;;;;;;;9.59;nan;100132.75;5077679;28;20024;-72
2023/04/19 04:18:57;;;;;;;55.35;22.75;;;;;;;9.58;nan;100138.25;5094877;28;20366;-72
2023/04/19 04:21:23;;;;;;;54.70;23.40;;;;;;;9.50;nan;100123.56;5086711;28;20095;-74
2023/04/19 04:23:49;;;;;;;43.60;20.83;;;;;;;9.56;nan;100135.81;5095553;27;20078;-74
2023/04/19 04:26:14;;;;;;;40.63;21.38;;;;;;;9.64;nan;100147.03;5100223;27;20031;-74
2023/04/19 04:28:40;;;;;;;37.10;20.08;;;;;;;9.55;nan;100139.50;5092603;27;20032;-75
2023/04/19 04:31:05;;;;;;;34.15;18.85;;;;;;;9.56;nan;100135.81;5093953;28;20023;-74
2023/04/19 04:33:30;;;;;;;37.85;19.65;;;;;;;9.55;nan;100136.88;5078157;28;20035;-76
2023/04/19 04:35:57;;;;;;;36.78;20.33;;;;;;;9.60;nan;100146.72;5095017;28;20059;-75
2023/04/19 04:38:23;;;;;;;37.80;19.88;;;;;;;9.53;nan;100136.28;5096499;28;20394;-74
2023/04/19 04:40:53;;;;;;;39.22;19.45;;;;;;;9.57;nan;100147.13;5080471;28;20028;-75
2023/04/19 04:43:24;;;;;;;41.50;21.13;;;;;;;9.63;nan;100154.13;5096284;27;20038;-75
2023/04/19 04:45:50;;;;;;;33.90;18.42;;;;;;;9.47;nan;100131.13;5100043;28;20033;-74
2023/04/19 04:48:16;;;;;;;34.40;18.15;;;;;;;9.53;nan;100135.50;5099778;27;20039;-75
2023/04/19 04:50:41;;;;;;;33.63;18.60;;;;;;;9.55;nan;100131.59;5097948;28;20024;-74
2023/04/19 04:53:07;;;;;;;40.85;20.58;;;;;;;9.64;nan;100147.03;5098499;28;20054;-74
2023/04/19 04:55:33;;;;;;;46.40;22.63;;;;;;;9.33;nan;100099.75;5084214;28;20028;-74
2023/04/19 04:57:59;;;;;;;48.80;22.08;;;;;;;9.63;nan;100150.72;5098980;27;20050;-74
2023/04/19 05:00:24;;;;;;;46.08;22.02;;;;;;;9.40;nan;100118.06;5082123;28;20032;-74
2023/04/19 05:02:51;;;;;;;56.65;23.15;;;;;;;9.36;nan;100111.63;5101128;28;20078;-74
2023/04/19 05:05:16;;;;;;;54.17;23.92;;;;;;;9.59;nan;100148.50;5096946;28;20035;-74
2023/04/19 05:07:41;;;;;;;60.70;24.42;;;;;;;9.67;nan;100151.84;5100082;28;20031;-74
2023/04/19 05:10:07;;;;;;;49.92;23.02;;;;;;;9.64;nan;100153.09;5101694;28;20030;-74
2023/04/19 05:12:33;;;;;;;51.40;23.67;;;;;;;9.58;nan;100138.25;5101848;28;20020;-74
2023/04/19 05:14:58;;;;;;;65.75;25.75;;;;;;;9.63;nan;100153.34;5103968;27;20073;-74
2023/04/19 05:17:24;;;;;;;57.40;24.63;;;;;;;9.61;nan;100140.41;5105364;28;20020;-73
2023/04/19 05:19:49;;;;;;;67.05;27.95;;;;;;;9.63;nan;100148.88;5101209;28;20035;-74
2023/04/19 05:22:15;;;;;;;69.10;27.52;;;;;;;9.64;nan;100147.03;5103019;28;20024;-74
2023/04/19 05:24:41;;;;;;;73.38;28.13;;;;;;;9.59;nan;100145.88;5100669;28;20047;-73
2023/04/19 05:27:06;;;;;;;75.70;29.60;;;;;;;9.58;nan;100140.88;5102461;28;20066;-74
2023/04/19 05:29:32;;;;;;;53.80;24.63;;;;;;;9.52;nan;100137.28;5093406;28;20035;-74
2023/04/19 05:31:57;;;;;;;48.70;23.88;;;;;;;9.63;nan;100146.25;5082490;28;20122;-74
2023/04/19 05:34:23;;;;;;;67.35;28.08;;;;;;;9.66;nan;100158.94;5098540;28;20401;-74
2023/04/19 05:36:48;;;;;;;62.42;25.70;;;;;;;9.63;nan;100156.75;5097268;28;20198;-74
2023/04/19 05:39:14;;;;;;;56.58;26.38;;;;;;;9.68;nan;100154.25;5100221;28;20130;-73
2023/04/19 05:41:39;;;;;;;74.80;29.42;;;;;;;9.67;nan;100147.38;5098709;28;20044;-73
2023/04/19 05:44:05;;;;;;;64.18;26.85;;;;;;;9.70;nan;100146.94;5098818;28;20035;-73
2023/04/19 05:46:30;;;;;;;67.53;28.75;;;;;;;9.69;nan;100150.59;5096185;28;20035;-74
2023/04/19 05:48:56;;;;;;;76.60;31.42;;;;;;;9.76;nan;100156.56;5078619;28;20038;-74
2023/04/19 05:51:21;;;;;;;76.00;31.10;;;;;;;9.69;nan;100144.53;5094074;28;20051;-73
2023/04/19 05:53:47;;;;;;;85.53;32.63;;;;;;;9.78;nan;100151.09;5108933;28;20019;-75
2023/04/19 05:56:12;;;;;;;81.78;33.03;;;;;;;9.81;nan;100148.00;5114850;28;20051;-75
2023/04/19 05:58:37;;;;;;;83.45;32.35;;;;;;;9.89;nan;100150.31;5096272;28;20036;-75
2023/04/19 06:01:03;;;;;;;80.30;31.35;;;;;;;9.92;nan;100151.69;5111890;28;20065;-74
2023/04/19 06:03:29;;;;;;;84.10;32.90;;;;;;;9.92;nan;100149.84;5089610;28;20023;-75
2023/04/19 06:05:54;;;;;;;82.97;33.13;;;;;;;10.00;nan;100146.09;5098180;28;20021;-75
2023/04/19 06:08:20;;;;;;;87.60;32.03;;;;;;;10.00;nan;100141.63;5100886;28;20874;-75
2023/04/19 06:10:48;;;;;;;79.40;32.35;;;;;;;10.05;nan;100145.41;5085543;28;20016;-76
2023/04/19 06:13:13;;;;;;;96.43;35.08;;;;;;;10.16;nan;100149.88;5102179;28;20020;-78
2023/04/19 06:15:39;;;;;;;90.97;34.33;;;;;;;10.19;nan;100146.78;5078158;28;20074;-76
2023/04/19 06:18:08;;;;;;;82.78;32.92;;;;;;;;;;5077030;28;20092;-78
2023/04/19 06:20:34;;;;;;;84.93;33.30;;;;;;;;;;5078806;28;20074;-78
2023/04/19 06:22:59;;;;;;;79.95;32.78;;;;;;;;;;5092508;28;20020;-77
2023/04/19 06:25:24;;;;;;;84.20;31.38;;;;;;;;;;5105078;28;20074;-77
2023/04/19 06:27:50;;;;;;;82.83;30.47;;;;;;;;;;5100983;28;20113;-77
2023/04/19 06:30:15;;;;;;;77.50;30.93;;;;;;;;;;5114987;28;20047;-77
2023/04/19 06:32:40;;;;;;;74.63;30.27;;;;;;;;;;5114766;28;20104;-76
2023/04/19 06:35:06;;;;;;;74.43;29.83;;;;;;;;;;5112588;28;20363;-76
2023/04/19 06:37:32;;;;;;;73.53;29.80;;;;;;;;;;5110378;28;20032;-75
2023/04/19 06:39:58;;;;;;;74.18;31.35;;;;;;;;;;5113354;28;20032;-76
2023/04/19 06:42:24;;;;;;;75.32;30.15;;;;;;;;;;5111765;28;20054;-77
2023/04/19 06:44:50;;;;;;;74.85;29.55;;;;;;;;;;5099007;28;20046;-76
2023/04/19 06:47:15;;;;;;;74.93;30.02;;;;;;;;;;5116381;28;20107;-75
2023/04/19 06:49:41;;;;;;;74.45;30.77;;;;;;;;;;5113164;28;20058;-76
2023/04/19 06:52:06;;;;;;;64.70;25.83;;;;;;;;;;5089794;28;20053;-76
2023/04/19 06:54:31;;;;;;;59.90;26.63;;;;;;;;;;5095506;28;20276;-76
2023/04/19 06:56:56;;;;;;;61.97;27.00;;;;;;;;;;5096288;28;20315;-76
2023/04/19 06:59:22;;;;;;;65.22;28.65;;;;;;;;;;5094471;28;21638;-76
2023/04/19 07:01:47;;;;;;;64.67;27.00;;;;;;;;;;5093293;28;20024;-75
2023/04/19 07:04:13;;;;;;;72.38;27.50;;;;;;;;;;5095274;28;20341;-76
2023/04/19 07:06:38;;;;;;;66.43;28.85;;;;;;;;;;5096165;28;20057;-75
2023/04/19 07:09:05;;;;;;;74.15;31.10;;;;;;;;;;5092936;28;20039;-76
2023/04/19 07:11:30;;;;;;;73.57;31.02;;;;;;;;;;5094012;28;20016;-75
2023/04/19 07:13:55;;;;;;;69.03;28.60;;;;;;;;;;5096067;28;20500;-76
2023/04/19 07:16:21;;;;;;;68.13;27.80;;;;;;;;;;5095046;28;20027;-76
2023/04/19 07:18:46;;;;;;;65.17;27.10;;;;;;;;;;5096966;28;20036;-76
2023/04/19 07:21:11;;;;;;;65.43;27.03;;;;;;;;;;5088809;28;20731;-74
2023/04/19 07:23:37;;;;;;;60.13;27.42;;;;;;;11.99;nan;100178.28;5094733;28;20035;-76
2023/04/19 07:26:02;;;;;;;56.55;24.25;;;;;;;;;;5095368;28;20016;-76
2023/04/19 07:28:28;;;;;;;61.03;23.30;;;;;;;;;;5093845;28;20040;-76
2023/04/19 07:30:53;;;;;;;48.05;21.17;;;;;;;;;;5096457;28;20032;-76
2023/04/19 07:33:18;;;;;;;42.93;20.20;;;;;;;;;;5094460;28;20036;-75
2023/04/19 07:35:44;;;;;;;43.53;18.02;;;;;;;;;;5081783;28;20284;-75
2023/04/19 07:38:09;;;;;;;42.50;19.60;;;;;;;;;;5081064;28;20043;-75
2023/04/19 07:40:34;;;;;;;46.23;18.73;;;;;;;;;;5081756;28;20027;-74
2023/04/19 07:42:59;;;;;;;40.50;19.67;;;;;;;;;;5078909;28;20043;-75
2023/04/19 07:45:25;;;;;;;42.60;19.27;;;;;;;;;;5080391;28;20093;-74
2023/04/19 07:47:50;;;;;;;36.83;18.30;;;;;;;;;;5083547;28;20287;-76
2023/04/19 07:50:15;;;;;;;33.03;16.40;;;;;;;;;;5078702;28;20283;-75
2023/04/19 07:52:40;;;;;;;32.20;15.65;;;;;;;;;;5079987;28;20288;-75
2023/04/19 07:55:06;;;;;;;27.30;15.23;;;;;;;;;;5080483;28;20060;-76
2023/04/19 07:57:31;;;;;;;31.25;14.10;;;;;;;;;;5079162;28;20064;-76
2023/04/19 07:59:58;;;;;;;23.53;11.93;;;;;;;;;;5081517;28;20034;-76
2023/04/19 08:02:26;;;;;;;19.10;11.05;;;;;;;;;;5083936;28;20858;-75
2023/04/19 08:04:52;;;;;;;24.20;11.47;;;;;;;;;;5084269;28;20024;-76
2023/04/19 08:07:17;;;;;;;22.70;11.13;;;;;;;;;;5086616;28;20043;-76
2023/04/19 08:09:42;;;;;;;21.70;11.60;;;;;;;;;;5089325;28;20030;-76
2023/04/19 08:12:08;;;;;;;19.00;9.87;;;;;;;;;;5087405;28;20086;-76
2023/04/19 08:14:33;;;;;;;17.90;9.63;;;;;;;;;;5090433;28;20264;-76
2023/04/19 08:16:58;;;;;;;19.73;10.18;;;;;;;;;;5089265;28;20162;-76
2023/04/19 08:19:23;;;;;;;19.13;9.97;;;;;;;;;;5084356;28;20115;-75
2023/04/19 08:21:49;;;;;;;15.93;8.87;;;;;;;;;;5083322;28;20648;-75
2023/04/19 08:24:14;;;;;;;17.23;8.35;;;;;;;;;;5082044;28;20405;-75
2023/04/19 08:26:39;;;;;;;16.30;9.43;;;;;;;;;;5077625;28;20032;-75
2023/04/19 08:29:05;;;;;;;17.42;9.45;;;;;;;;;;5076471;28;20269;-74
2023/04/19 08:31:30;;;;;;;11.23;6.77;;;;;;;;;;5076003;28;20082;-73
2023/04/19 08:33:57;;;;;;;17.35;8.15;;;;;;;;;;5072932;28;20036;-74
2023/04/19 08:36:22;;;;;;;17.45;8.85;;;;;;;;;;5073823;28;20055;-74
2023/04/19 08:38:47;;;;;;;14.40;8.13;;;;;;;;;;5074326;28;20056;-74
2023/04/19 08:41:13;;;;;;;13.63;8.23;;;;;;;;;;5077147;28;20280;-74
2023/04/19 08:43:41;;;;;;;17.00;7.57;;;;;;;;;;5073307;28;20565;-74
2023/04/19 08:46:06;;;;;;;14.13;7.70;;;;;;;;;;5075844;28;20619;-74
2023/04/19 08:48:33;;;;;;;13.95;6.70;;;;;;;;;;5075652;28;20028;-74
2023/04/19 08:50:59;;;;;;;11.68;6.63;;;;;;;;;;5074023;28;20048;-74
2023/04/19 08:53:26;;;;;;;12.20;7.03;;;;;;;;;;5078476;28;20062;-74
2023/04/19 08:55:57;;;;;;;13.30;6.70;;;;;;;;;;5073462;28;20025;-73
2023/04/19 08:58:22;;;;;;;11.93;6.30;;;;;;;;;;5096575;28;20031;-75
2023/04/19 09:00:48;;;;;;;13.10;6.83;;;;;;;;;;5099214;28;20024;-74
2023/04/19 09:03:13;;;;;;;13.87;8.03;;;;;;;;;;5095859;28;20302;-74
2023/04/19 09:05:38;;;;;;;13.90;7.40;;;;;;;;;;5094650;28;20077;-74
2023/04/19 09:08:22;;;;;;;13.23;8.23;;;;;;;;;;5080555;28;20027;-74
2023/04/19 09:10:53;;;;;;;11.68;6.68;;;;;;;;;;5096881;28;20085;-74
2023/04/19 09:13:19;;;;;;;15.25;8.50;;;;;;;;;;5087467;28;20038;-74
2023/04/19 09:15:44;;;;;;;13.02;7.80;;;;;;;;;;5083657;28;20393;-73
2023/04/19 09:18:10;;;;;;;11.77;7.05;;;;;;;;;;5098877;28;20028;-74
2023/04/19 09:20:36;;;;;;;12.77;7.30;;;;;;;;;;5097564;28;20035;-74
2023/04/19 09:23:05;;;;;;;14.18;7.00;;;;;;;;;;5083161;28;20271;-74
2023/04/19 09:25:30;;;;;;;10.95;6.45;;;;;;;;;;5096071;28;20035;-74
2023/04/19 09:28:07;;;;;;;12.75;7.65;;;;;;;;;;5099777;28;20102;-74
2023/04/19 09:30:32;;;;;;;11.43;6.72;;;;;;;;;;5099022;27;20035;-74
2023/04/19 09:32:58;;;;;;;10.43;7.13;;;;;;;;;;5079247;27;20031;-74
2023/04/19 09:35:38;;;;;;;17.27;7.27;;;;;;;;;;5095058;27;20284;-74
2023/04/19 09:38:04;;;;;;;14.43;6.78;;;;;;;;;;5093149;28;20272;-73
2023/04/19 09:40:29;;;;;;;13.95;7.25;;;;;;;;;;5094977;28;20024;-73
2023/04/19 09:42:55;;;;;;;13.02;6.88;;;;;;;;;;5081134;28;20077;-74
2023/04/19 09:45:20;;;;;;;10.13;6.67;;;;;;;;;;5095505;28;20027;-72
2023/04/19 09:47:59;;;;;;;11.77;6.18;;;;;;;;;;5095466;28;20383;-74
2023/04/19 09:50:24;;;;;;;9.48;6.03;;;;;;;;;;5093872;28;20463;-74
2023/04/19 09:52:51;;;;;;;14.52;7.38;;;;;;;;;;5097426;28;20024;-74
2023/04/19 09:55:17;;;;;;;14.80;8.35;;;;;;;;;;5091846;28;20032;-74
2023/04/19 09:57:43;;;;;;;18.08;7.68;;;;;;;;;;5093200;28;20074;-74
2023/04/19 10:00:12;;;;;;;16.02;6.43;;;;;;;;;;5076574;28;20032;-73
2023/04/19 10:02:39;;;;;;;11.85;6.40;;;;;;;;;;5088481;28;20024;-75
2023/04/19 10:05:05;;;;;;;12.90;7.60;;;;;;;;;;5092790;28;20027;-74
2023/04/19 10:07:31;;;;;;;12.70;6.85;;;;;;;;;;5094315;28;20058;-76
2023/04/19 10:09:57;;;;;;;11.43;6.68;;;;;;;;;;5079059;28;20065;-75
2023/04/19 10:12:23;;;;;;;11.30;6.70;;;;;;;;;;5094063;28;20061;-75
2023/04/19 10:14:49;;;;;;;9.48;6.70;;;;;;;;;;5094465;28;20791;-75
2023/04/19 10:17:15;;;;;;;17.15;8.10;;;;;;;15.32;nan;100137.16;5090962;28;20035;-74
2023/04/19 10:19:41;;;;;;;10.98;6.70;;;;;;;;;;5090351;28;20038;-75
2023/04/19 10:22:07;;;;;;;11.75;6.88;;;;;;;;;;5094613;28;20027;-74
2023/04/19 10:24:33;;;;;;;15.77;8.43;;;;;;;;;;5095274;28;20020;-75
2023/04/19 10:27:04;;;;;;;12.77;7.63;;;;;;;;;;5088183;28;20023;-74
2023/04/19 10:30:09;;;;;;;12.77;7.05;;;;;;;;;;5095845;28;20272;-75
2023/04/19 10:32:37;;;;;;;14.13;9.43;;;;;;;;;;5060245;27;20039;-74
2023/04/19 10:35:09;;;;;;;16.80;9.82;;;;;;;;;;5095313;28;20032;-75
2023/04/19 10:37:38;;;;;;;14.23;8.23;;;;;;;;;;5078890;28;20031;-75
2023/04/19 10:40:05;;;;;;;13.23;7.45;;;;;;;;;;5077762;28;20432;-76
2023/04/19 10:42:49;;;;;;;13.27;7.15;;;;;;;;;;5079854;28;20374;-74
2023/04/19 10:45:44;;;;;;;13.55;7.20;;;;;;;;;;5100268;28;20027;-74
2023/04/19 10:48:34;;;;;;;12.43;7.35;;;;;;;;;;5080056;28;20043;-75
2023/04/19 10:51:02;;;;;;;15.27;7.43;;;;;;;;;;5081195;28;20032;-74
2023/04/19 10:53:47;;;;;;;10.57;6.90;;;;;;;;;;5093488;28;20368;-74
2023/04/19 10:56:13;;;;;;;11.85;6.32;;;;;;;;;;5094276;28;20040;-75
2023/04/19 10:58:57;;;;;;;13.00;6.85;;;;;;;;;;5093659;28;20023;-74
2023/04/19 11:01:44;;;;;;;15.25;8.55;;;;;;;;;;5087959;28;20032;-75
2023/04/19 11:04:12;;;;;;;13.38;8.63;;;;;;;;;;5095558;28;20036;-75
2023/04/19 11:06:52;;;;;;;14.30;8.13;;;;;;;;;;5097729;27;20027;-73
2023/04/19 11:09:38;;;;;;;19.20;10.32;;;;;;;;;;5082157;28;20419;-74
2023/04/19 11:12:14;;;;;;;19.77;10.98;;;;;;;;;;5096860;28;20032;-73
2023/04/19 11:14:56;;;;;;;21.30;11.95;;;;;;;;;;5082896;28;20016;-72
2023/04/19 11:17:29;;;;;;;20.35;12.15;;;;;;;;;;5080913;28;20111;-74
2023/04/19 11:19:55;;;;;;;21.38;12.15;;;;;;;;;;5082693;28;20097;-75
2023/04/19 11:22:34;;;;;;;14.73;8.82;;;;;;;;;;5080036;28;20520;-73
2023/04/19 11:25:09;;;;;;;13.95;8.30;;;;;;;;;;5087326;28;20032;-72
2023/04/19 11:27:34;;;;;;;13.40;8.43;;;;;;;;;;5084977;28;20026;-72
2023/04/19 11:30:07;;;;;;;15.00;9.32;;;;;;;;;;5097920;28;20103;-74
2023/04/19 11:32:32;;;;;;;16.95;9.15;;;;;;;;;;5084857;28;20043;-73
2023/04/19 11:35:03;;;;;;;15.27;9.52;;;;;;;;;;5097094;28;20492;-72
2023/04/19 11:37:31;;;;;;;15.68;9.05;;;;;;;;;;5097768;28;20028;-75
2023/04/19 11:39:56;;;;;;;18.50;9.20;;;;;;;;;;5098692;28;20059;-74
2023/04/19 11:42:22;;;;;;;17.50;8.98;;;;;;;;;;5102981;27;20061;-74
2023/04/19 11:44:48;;;;;;;14.93;8.40;;;;;;;;;;5083566;28;20028;-73
2023/04/19 11:47:13;;;;;;;13.00;7.38;;;;;;;;;;5097534;28;20353;-74
2023/04/19 11:49:39;;;;;;;10.80;7.47;;;;;;;;;;5084171;28;20039;-74
2023/04/19 11:52:05;;;;;;;12.20;7.82;;;;;;;;;;5097564;27;20032;-75
2023/04/19 11:54:30;;;;;;;16.95;8.20;;;;;;;;;;5083382;28;20032;-72
2023/04/19 11:57:05;;;;;;;13.55;7.85;;;;;;;;;;5082503;28;20047;-72
2023/04/19 11:59:31;;;;;;;13.07;7.72;;;;;;;;;;5079822;28;20456;-72
2023/04/19 12:02:03;;;;;;;9.88;7.25;;;;;;;;;;5082927;28;20122;-72
2023/04/19 12:04:29;;;;;;;11.07;7.40;;;;;;;13.80;nan;100111.50;5102217;28;20516;-74
2023/04/19 12:07:01;;;;;;;14.70;8.73;;;;;;;;;;5101322;28;20035;-72
2023/04/19 12:09:26;;;;;;;16.15;9.13;;;;;;;;;;5078229;28;20031;-72
2023/04/19 12:11:51;;;;;;;15.30;8.70;;;;;;;;;;5095001;28;20032;-72
2023/04/19 12:14:20;;;;;;;15.48;8.95;;;;;;;;;;5095797;28;20466;-72
2023/04/19 12:16:45;;;;;;;13.70;8.02;;;;;;;;;;5080536;28;20028;-72
2023/04/19 12:19:16;;;;;;;15.05;9.90;;;;;;;;;;5096740;28;20530;-72
2023/04/19 12:21:41;;;;;;;12.63;8.77;;;;;;;;;;5096515;28;20035;-72
2023/04/19 12:24:07;;;;;;;13.77;8.60;;;;;;;13.93;nan;100110.25;5078821;28;20283;-72
2023/04/19 12:26:32;;;;;;;11.95;8.35;;;;;;;;;;5092466;28;20062;-72
2023/04/19 12:28:58;;;;;;;13.13;9.30;;;;;;;;;;5080355;28;20427;-71
2023/04/19 12:31:24;;;;;;;13.25;8.82;;;;;;;;;;5093371;28;20038;-72
2023/04/19 12:33:50;;;;;;;39.25;20.27;;;;;;;;;;5095591;28;20474;-72
2023/04/19 12:36:15;;;;;;;18.80;10.27;;;;;;;;;;5081180;28;20023;-72
2023/04/19 12:38:40;;;;;;;18.37;8.80;;;;;;;;;;5080259;28;20024;-72
2023/04/19 12:41:06;;;;;;;13.35;8.60;;;;;;;;;;5095090;28;20118;-72
2023/04/19 12:43:31;;;;;;;13.73;8.55;;;;;;;;;;5080758;28;20038;-72
2023/04/19 12:45:57;;;;;;;13.50;8.68;;;;;;;;;;5081569;28;20110;-72
2023/04/19 12:48:22;;;;;;;16.15;9.05;;;;;;;;;;5073726;28;20114;-72
2023/04/19 12:50:48;;;;;;;14.68;8.05;;;;;;;;;;5079631;28;20031;-73
2023/04/19 12:53:13;;;;;;;21.77;8.33;;;;;;;;;;5094612;28;20030;-72
2023/04/19 12:55:39;;;;;;;16.20;8.20;;;;;;;;;;5081948;28;20028;-72
2023/04/19 12:58:04;;;;;;;14.35;7.85;;;;;;;;;;5093693;28;20046;-72
2023/04/19 13:00:29;;;;;;;11.13;8.00;;;;;;;;;;5091637;28;20102;-72
2023/04/19 13:02:55;;;;;;;14.80;8.13;;;;;;;;;;5091586;28;20033;-72
2023/04/19 13:05:20;;;;;;;17.37;8.30;;;;;;;;;;5094119;28;20279;-72
2023/04/19 13:07:46;;;;;;;25.63;10.60;;;;;;;;;;5089121;28;20070;-72
2023/04/19 13:10:11;;;;;;;17.40;8.53;;;;;;;;;;5095320;28;20024;-73
2023/04/19 13:12:36;;;;;;;14.48;7.72;;;;;;;14.29;nan;100113.91;5093349;28;20308;-72
2023/04/19 13:15:02;;;;;;;16.67;8.55;;;;;;;;;;5093383;28;20473;-72
2023/04/19 13:17:27;;;;;;;12.88;7.95;;;;;;;;;;5089872;28;20115;-72
2023/04/19 13:19:53;;;;;;;16.30;7.85;;;;;;;;;;5078068;28;20024;-74
2023/04/19 13:22:18;;;;;;;12.93;7.33;;;;;;;;;;5073872;28;20031;-74
2023/04/19 13:24:43;;;;;;;16.30;8.00;;;;;;;;;;5092836;28;20024;-72
2023/04/19 13:27:08;;;;;;;14.68;7.97;;;;;;;;;;5077747;28;20304;-74
2023/04/19 13:29:34;;;;;;;13.03;7.80;;;;;;;;;;5081684;28;20107;-73
2023/04/19 13:31:59;;;;;;;13.95;7.07;;;;;;;;;;5079059;28;20688;-73
2023/04/19 13:34:25;;;;;;;12.65;7.38;;;;;;;;;;5078708;28;20028;-74
2023/04/19 13:36:50;;;;;;;11.48;7.15;;;;;;;;;;5097305;28;20521;-71
2023/04/19 13:39:16;;;;;;;10.85;7.05;;;;;;;;;;5078451;28;20031;-75